sensor_id;sensor_type;location;lat;lon;timestamp;P1;durP1;ratioP1;P2;durP2;ratioP2
10031;SDS011;5056;44.272;19.892;2022-10-17T00:01:22;11.80;;;10.60;;
10031;SDS011;5056;44.272;19.892;2022-10-17T00:03:49;12.80;;;11.50;;
10031;SDS011;5056;44.272;19.892;2022-10-17T00:06:16;12.03;;;10.83;;
10031;SDS011;5056;44.272;19.892;2022-10-17T00:08:47;14.53;;;11.60;;
10031;SDS011;5056;44.272;19.892;2022-10-17T00:11:24;12.57;;;11.27;;
10031;SDS011;5056;44.272;19.892;2022-10-17T00:13:52;13.30;;;11.93;;
10031;SDS011;5056;44.272;19.892;2022-10-17T00:16:22;13.30;;;11.97;;
10031;SDS011;5056;44.272;19.892;2022-10-17T00:18:49;14.60;;;12.63;;
10031;SDS011;5056;44.272;19.892;2022-10-17T00:21:17;15.70;;;13.13;;
10031;SDS011;5056;44.272;19.892;2022-10-17T00:23:48;14.43;;;12.53;;
10031;SDS011;5056;44.272;19.892;2022-10-17T00:26:15;13.80;;;12.33;;
10031;SDS011;5056;44.272;19.892;2022-10-17T00:28:45;14.53;;;12.77;;
10031;SDS011;5056;44.272;19.892;2022-10-17T00:31:13;12.43;;;11.13;;
10031;SDS011;5056;44.272;19.892;2022-10-17T00:33:42;12.67;;;11.47;;
10031;SDS011;5056;44.272;19.892;2022-10-17T00:36:12;13.40;;;12.00;;
10031;SDS011;5056;44.272;19.892;2022-10-17T00:38:42;12.30;;;11.10;;
10031;SDS011;5056;44.272;19.892;2022-10-17T00:41:12;12.27;;;10.87;;
10031;SDS011;5056;44.272;19.892;2022-10-17T00:43:50;11.93;;;10.73;;
10031;SDS011;5056;44.272;19.892;2022-10-17T00:46:19;14.17;;;11.73;;
10031;SDS011;5056;44.272;19.892;2022-10-17T00:48:47;12.37;;;11.07;;
10031;SDS011;5056;44.272;19.892;2022-10-17T00:51:14;12.23;;;11.10;;
10031;SDS011;5056;44.272;19.892;2022-10-17T00:53:45;12.57;;;11.20;;
10031;SDS011;5056;44.272;19.892;2022-10-17T00:59:17;12.70;;;11.40;;
10031;SDS011;5056;44.272;19.892;2022-10-17T01:01:47;12.23;;;11.13;;
10031;SDS011;5056;44.272;19.892;2022-10-17T01:04:17;13.67;;;10.90;;
10031;SDS011;5056;44.272;19.892;2022-10-17T01:06:44;12.53;;;11.23;;
10031;SDS011;5056;44.272;19.892;2022-10-17T01:09:14;13.43;;;11.73;;
10031;SDS011;5056;44.272;19.892;2022-10-17T01:11:43;12.03;;;10.83;;
10031;SDS011;5056;44.272;19.892;2022-10-17T01:14:17;11.50;;;9.87;;
10031;SDS011;5056;44.272;19.892;2022-10-17T01:16:49;15.73;;;10.90;;
10031;SDS011;5056;44.272;19.892;2022-10-17T01:19:35;10.87;;;9.87;;
10031;SDS011;5056;44.272;19.892;2022-10-17T01:22:14;12.57;;;10.20;;
10031;SDS011;5056;44.272;19.892;2022-10-17T01:24:53;12.23;;;10.43;;
10031;SDS011;5056;44.272;19.892;2022-10-17T01:30:21;11.13;;;9.60;;
10031;SDS011;5056;44.272;19.892;2022-10-17T01:33:11;11.27;;;10.10;;
10031;SDS011;5056;44.272;19.892;2022-10-17T01:35:42;12.53;;;10.53;;
10031;SDS011;5056;44.272;19.892;2022-10-17T01:38:15;10.70;;;9.60;;
10031;SDS011;5056;44.272;19.892;2022-10-17T01:40:48;10.63;;;9.63;;
10031;SDS011;5056;44.272;19.892;2022-10-17T01:43:23;10.83;;;9.57;;
10031;SDS011;5056;44.272;19.892;2022-10-17T01:45:57;10.90;;;9.83;;
10031;SDS011;5056;44.272;19.892;2022-10-17T01:51:02;11.17;;;9.97;;
10031;SDS011;5056;44.272;19.892;2022-10-17T01:53:33;11.20;;;10.00;;
10031;SDS011;5056;44.272;19.892;2022-10-17T01:56:05;11.10;;;10.00;;
10031;SDS011;5056;44.272;19.892;2022-10-17T01:58:35;11.20;;;10.00;;
10031;SDS011;5056;44.272;19.892;2022-10-17T02:01:05;10.93;;;9.70;;
10031;SDS011;5056;44.272;19.892;2022-10-17T02:03:36;12.60;;;9.50;;
10031;SDS011;5056;44.272;19.892;2022-10-17T02:06:05;10.77;;;9.77;;
10031;SDS011;5056;44.272;19.892;2022-10-17T02:08:39;13.57;;;10.57;;
10031;SDS011;5056;44.272;19.892;2022-10-17T02:11:08;12.53;;;10.07;;
10031;SDS011;5056;44.272;19.892;2022-10-17T02:13:47;12.93;;;9.90;;
10031;SDS011;5056;44.272;19.892;2022-10-17T02:16:26;12.30;;;9.37;;
10031;SDS011;5056;44.272;19.892;2022-10-17T02:22:22;10.40;;;9.30;;
10031;SDS011;5056;44.272;19.892;2022-10-17T02:25:00;10.73;;;9.73;;
10031;SDS011;5056;44.272;19.892;2022-10-17T02:27:32;10.63;;;9.53;;
10031;SDS011;5056;44.272;19.892;2022-10-17T02:30:04;10.80;;;9.67;;
10031;SDS011;5056;44.272;19.892;2022-10-17T02:32:35;9.97;;;8.97;;
10031;SDS011;5056;44.272;19.892;2022-10-17T02:35:10;10.33;;;9.33;;
10031;SDS011;5056;44.272;19.892;2022-10-17T02:37:40;11.73;;;10.50;;
10031;SDS011;5056;44.272;19.892;2022-10-17T02:40:08;12.93;;;10.47;;
10031;SDS011;5056;44.272;19.892;2022-10-17T02:42:37;12.03;;;10.83;;
10031;SDS011;5056;44.272;19.892;2022-10-17T02:45:05;11.67;;;10.47;;
10031;SDS011;5056;44.272;19.892;2022-10-17T02:47:34;12.60;;;11.10;;
10031;SDS011;5056;44.272;19.892;2022-10-17T02:50:12;11.37;;;10.17;;
10031;SDS011;5056;44.272;19.892;2022-10-17T02:52:41;12.03;;;10.20;;
10031;SDS011;5056;44.272;19.892;2022-10-17T02:55:13;11.57;;;9.97;;
10031;SDS011;5056;44.272;19.892;2022-10-17T02:57:43;11.63;;;10.03;;
10031;SDS011;5056;44.272;19.892;2022-10-17T03:00:13;12.93;;;10.70;;
10031;SDS011;5056;44.272;19.892;2022-10-17T03:02:42;10.30;;;9.20;;
10031;SDS011;5056;44.272;19.892;2022-10-17T03:05:11;12.10;;;10.33;;
10031;SDS011;5056;44.272;19.892;2022-10-17T03:07:41;10.23;;;9.23;;
10031;SDS011;5056;44.272;19.892;2022-10-17T03:10:08;10.60;;;9.43;;
10031;SDS011;5056;44.272;19.892;2022-10-17T03:12:36;10.30;;;9.27;;
10031;SDS011;5056;44.272;19.892;2022-10-17T03:15:04;9.43;;;8.53;;
10031;SDS011;5056;44.272;19.892;2022-10-17T03:17:33;10.23;;;9.23;;
10031;SDS011;5056;44.272;19.892;2022-10-17T03:20:01;10.20;;;9.20;;
10031;SDS011;5056;44.272;19.892;2022-10-17T03:22:32;9.90;;;9.03;;
10031;SDS011;5056;44.272;19.892;2022-10-17T03:24:59;10.00;;;8.87;;
10031;SDS011;5056;44.272;19.892;2022-10-17T03:27:27;9.37;;;8.47;;
10031;SDS011;5056;44.272;19.892;2022-10-17T03:29:54;9.67;;;8.53;;
10031;SDS011;5056;44.272;19.892;2022-10-17T03:32:22;10.00;;;8.87;;
10031;SDS011;5056;44.272;19.892;2022-10-17T03:34:49;10.80;;;9.70;;
10031;SDS011;5056;44.272;19.892;2022-10-17T03:37:17;10.83;;;9.30;;
10031;SDS011;5056;44.272;19.892;2022-10-17T03:39:46;12.00;;;10.07;;
10031;SDS011;5056;44.272;19.892;2022-10-17T03:42:15;11.80;;;9.90;;
10031;SDS011;5056;44.272;19.892;2022-10-17T03:44:42;11.60;;;10.40;;
10031;SDS011;5056;44.272;19.892;2022-10-17T03:49:46;13.70;;;11.60;;
10031;SDS011;5056;44.272;19.892;2022-10-17T03:52:13;16.20;;;12.13;;
10031;SDS011;5056;44.272;19.892;2022-10-17T03:54:41;14.30;;;12.13;;
10031;SDS011;5056;44.272;19.892;2022-10-17T03:57:10;14.97;;;12.67;;
10031;SDS011;5056;44.272;19.892;2022-10-17T03:59:37;15.27;;;12.90;;
10031;SDS011;5056;44.272;19.892;2022-10-17T04:02:05;13.47;;;12.03;;
10031;SDS011;5056;44.272;19.892;2022-10-17T04:04:32;13.33;;;11.77;;
10031;SDS011;5056;44.272;19.892;2022-10-17T04:06:59;12.63;;;11.40;;
10031;SDS011;5056;44.272;19.892;2022-10-17T04:09:27;11.07;;;9.97;;
10031;SDS011;5056;44.272;19.892;2022-10-17T04:11:54;10.50;;;9.40;;
10031;SDS011;5056;44.272;19.892;2022-10-17T04:14:23;11.77;;;10.37;;
10031;SDS011;5056;44.272;19.892;2022-10-17T04:16:50;12.40;;;10.53;;
10031;SDS011;5056;44.272;19.892;2022-10-17T04:19:18;15.03;;;10.30;;
10031;SDS011;5056;44.272;19.892;2022-10-17T04:21:47;11.10;;;9.77;;
10031;SDS011;5056;44.272;19.892;2022-10-17T04:24:15;11.73;;;9.73;;
10031;SDS011;5056;44.272;19.892;2022-10-17T04:26:42;11.10;;;9.97;;
10031;SDS011;5056;44.272;19.892;2022-10-17T04:29:10;13.67;;;10.60;;
10031;SDS011;5056;44.272;19.892;2022-10-17T04:31:39;11.10;;;10.03;;
10031;SDS011;5056;44.272;19.892;2022-10-17T04:34:06;14.47;;;12.97;;
10031;SDS011;5056;44.272;19.892;2022-10-17T04:36:38;15.37;;;12.83;;
10031;SDS011;5056;44.272;19.892;2022-10-17T04:39:05;13.87;;;12.27;;
10031;SDS011;5056;44.272;19.892;2022-10-17T04:41:33;13.40;;;12.00;;
10031;SDS011;5056;44.272;19.892;2022-10-17T04:44:00;16.23;;;12.23;;
10031;SDS011;5056;44.272;19.892;2022-10-17T04:46:28;16.93;;;11.40;;
10031;SDS011;5056;44.272;19.892;2022-10-17T04:49:00;11.30;;;10.10;;
10031;SDS011;5056;44.272;19.892;2022-10-17T04:51:30;11.97;;;10.70;;
10031;SDS011;5056;44.272;19.892;2022-10-17T04:53:57;13.87;;;10.07;;
10031;SDS011;5056;44.272;19.892;2022-10-17T04:56:24;11.50;;;10.37;;
10031;SDS011;5056;44.272;19.892;2022-10-17T05:02:17;13.23;;;10.53;;
10031;SDS011;5056;44.272;19.892;2022-10-17T05:04:47;11.07;;;9.97;;
10031;SDS011;5056;44.272;19.892;2022-10-17T05:07:14;12.37;;;10.90;;
10031;SDS011;5056;44.272;19.892;2022-10-17T05:10:10;11.13;;;9.90;;
10031;SDS011;5056;44.272;19.892;2022-10-17T05:12:39;14.13;;;11.00;;
10031;SDS011;5056;44.272;19.892;2022-10-17T05:15:06;13.80;;;10.30;;
10031;SDS011;5056;44.272;19.892;2022-10-17T05:17:36;11.90;;;10.27;;
10031;SDS011;5056;44.272;19.892;2022-10-17T05:20:06;12.70;;;10.33;;
10031;SDS011;5056;44.272;19.892;2022-10-17T05:22:34;12.40;;;10.03;;
10031;SDS011;5056;44.272;19.892;2022-10-17T05:25:07;12.20;;;10.60;;
10031;SDS011;5056;44.272;19.892;2022-10-17T05:27:35;12.00;;;10.57;;
10031;SDS011;5056;44.272;19.892;2022-10-17T05:30:03;14.03;;;11.23;;
10031;SDS011;5056;44.272;19.892;2022-10-17T05:32:32;13.83;;;11.50;;
10031;SDS011;5056;44.272;19.892;2022-10-17T05:35:00;13.47;;;11.20;;
10031;SDS011;5056;44.272;19.892;2022-10-17T05:37:31;13.53;;;11.30;;
10031;SDS011;5056;44.272;19.892;2022-10-17T05:39:58;12.97;;;11.50;;
10031;SDS011;5056;44.272;19.892;2022-10-17T05:42:25;15.97;;;12.10;;
10031;SDS011;5056;44.272;19.892;2022-10-17T05:44:53;15.27;;;12.00;;
10031;SDS011;5056;44.272;19.892;2022-10-17T05:47:20;13.77;;;11.57;;
10031;SDS011;5056;44.272;19.892;2022-10-17T05:49:48;13.13;;;11.17;;
10031;SDS011;5056;44.272;19.892;2022-10-17T05:52:17;14.27;;;11.47;;
10031;SDS011;5056;44.272;19.892;2022-10-17T05:54:44;14.20;;;12.70;;
10031;SDS011;5056;44.272;19.892;2022-10-17T05:57:11;24.23;;;13.83;;
10031;SDS011;5056;44.272;19.892;2022-10-17T05:59:38;18.80;;;14.73;;
10031;SDS011;5056;44.272;19.892;2022-10-17T06:02:08;22.90;;;15.27;;
10031;SDS011;5056;44.272;19.892;2022-10-17T06:04:35;22.17;;;17.00;;
10031;SDS011;5056;44.272;19.892;2022-10-17T06:09:45;25.20;;;18.47;;
10031;SDS011;5056;44.272;19.892;2022-10-17T06:12:12;30.83;;;20.33;;
10031;SDS011;5056;44.272;19.892;2022-10-17T06:14:43;33.03;;;22.43;;
10031;SDS011;5056;44.272;19.892;2022-10-17T06:17:11;32.00;;;23.60;;
10031;SDS011;5056;44.272;19.892;2022-10-17T06:19:38;34.53;;;22.97;;
10031;SDS011;5056;44.272;19.892;2022-10-17T06:22:10;29.50;;;21.20;;
10031;SDS011;5056;44.272;19.892;2022-10-17T06:24:39;27.10;;;20.52;;
10031;SDS011;5056;44.272;19.892;2022-10-17T06:27:19;23.85;;;19.38;;
10031;SDS011;5056;44.272;19.892;2022-10-17T06:29:47;24.15;;;19.15;;
10031;SDS011;5056;44.272;19.892;2022-10-17T06:32:16;20.83;;;16.50;;
10031;SDS011;5056;44.272;19.892;2022-10-17T06:34:44;17.13;;;14.75;;
10031;SDS011;5056;44.272;19.892;2022-10-17T06:37:13;16.58;;;13.45;;
10031;SDS011;5056;44.272;19.892;2022-10-17T06:39:48;15.60;;;14.07;;
10031;SDS011;5056;44.272;19.892;2022-10-17T06:42:18;16.63;;;12.07;;
10031;SDS011;5056;44.272;19.892;2022-10-17T06:44:45;15.00;;;12.18;;
10031;SDS011;5056;44.272;19.892;2022-10-17T06:47:18;13.95;;;11.48;;
10031;SDS011;5056;44.272;19.892;2022-10-17T06:49:45;11.77;;;10.68;;
10031;SDS011;5056;44.272;19.892;2022-10-17T06:52:14;11.50;;;10.43;;
10031;SDS011;5056;44.272;19.892;2022-10-17T06:54:48;12.50;;;11.40;;
10031;SDS011;5056;44.272;19.892;2022-10-17T06:57:16;14.52;;;11.02;;
10031;SDS011;5056;44.272;19.892;2022-10-17T06:59:44;13.00;;;11.73;;
10031;SDS011;5056;44.272;19.892;2022-10-17T07:02:12;16.40;;;11.90;;
10031;SDS011;5056;44.272;19.892;2022-10-17T07:04:39;17.02;;;11.73;;
10031;SDS011;5056;44.272;19.892;2022-10-17T07:07:07;13.00;;;11.63;;
10031;SDS011;5056;44.272;19.892;2022-10-17T07:09:37;12.82;;;11.52;;
10031;SDS011;5056;44.272;19.892;2022-10-17T07:12:07;12.23;;;11.02;;
10031;SDS011;5056;44.272;19.892;2022-10-17T07:14:36;14.25;;;12.32;;
10031;SDS011;5056;44.272;19.892;2022-10-17T07:17:07;15.25;;;13.60;;
10031;SDS011;5056;44.272;19.892;2022-10-17T07:19:34;13.77;;;12.48;;
10031;SDS011;5056;44.272;19.892;2022-10-17T07:22:01;19.05;;;16.42;;
10031;SDS011;5056;44.272;19.892;2022-10-17T07:24:28;20.52;;;17.00;;
10031;SDS011;5056;44.272;19.892;2022-10-17T07:26:59;20.08;;;17.98;;
10031;SDS011;5056;44.272;19.892;2022-10-17T07:29:27;20.75;;;18.63;;
10031;SDS011;5056;44.272;19.892;2022-10-17T07:31:54;26.70;;;19.80;;
10031;SDS011;5056;44.272;19.892;2022-10-17T07:34:21;18.30;;;16.40;;
10031;SDS011;5056;44.272;19.892;2022-10-17T07:36:51;18.10;;;16.30;;
10031;SDS011;5056;44.272;19.892;2022-10-17T07:39:18;22.67;;;17.95;;
10031;SDS011;5056;44.272;19.892;2022-10-17T07:41:45;27.38;;;18.58;;
10031;SDS011;5056;44.272;19.892;2022-10-17T07:47:38;23.05;;;17.92;;
10031;SDS011;5056;44.272;19.892;2022-10-17T07:50:06;23.08;;;17.67;;
10031;SDS011;5056;44.272;19.892;2022-10-17T07:52:42;33.72;;;19.33;;
10031;SDS011;5056;44.272;19.892;2022-10-17T07:55:10;35.40;;;20.52;;
10031;SDS011;5056;44.272;19.892;2022-10-17T07:57:39;33.25;;;21.88;;
10031;SDS011;5056;44.272;19.892;2022-10-17T08:00:07;37.20;;;22.38;;
10031;SDS011;5056;44.272;19.892;2022-10-17T08:02:35;32.20;;;22.75;;
10031;SDS011;5056;44.272;19.892;2022-10-17T08:05:04;37.50;;;23.42;;
10031;SDS011;5056;44.272;19.892;2022-10-17T08:07:32;37.90;;;23.90;;
10031;SDS011;5056;44.272;19.892;2022-10-17T08:09:59;34.03;;;21.83;;
10031;SDS011;5056;44.272;19.892;2022-10-17T08:12:27;29.60;;;21.25;;
10031;SDS011;5056;44.272;19.892;2022-10-17T08:14:58;26.92;;;18.55;;
10031;SDS011;5056;44.272;19.892;2022-10-17T08:17:27;25.42;;;17.75;;
10031;SDS011;5056;44.272;19.892;2022-10-17T08:19:56;25.35;;;18.60;;
10031;SDS011;5056;44.272;19.892;2022-10-17T08:22:25;20.65;;;18.27;;
10031;SDS011;5056;44.272;19.892;2022-10-17T08:24:52;25.88;;;20.08;;
10031;SDS011;5056;44.272;19.892;2022-10-17T08:27:21;18.83;;;16.80;;
10031;SDS011;5056;44.272;19.892;2022-10-17T08:29:51;18.98;;;17.08;;
10031;SDS011;5056;44.272;19.892;2022-10-17T08:32:25;21.02;;;16.88;;
10031;SDS011;5056;44.272;19.892;2022-10-17T08:34:54;21.08;;;17.33;;
10031;SDS011;5056;44.272;19.892;2022-10-17T08:37:22;23.50;;;17.50;;
10031;SDS011;5056;44.272;19.892;2022-10-17T08:39:51;17.08;;;15.30;;
10031;SDS011;5056;44.272;19.892;2022-10-17T08:42:25;20.45;;;15.88;;
10031;SDS011;5056;44.272;19.892;2022-10-17T08:45:02;20.48;;;15.35;;
10031;SDS011;5056;44.272;19.892;2022-10-17T08:47:35;19.25;;;16.20;;
10031;SDS011;5056;44.272;19.892;2022-10-17T08:50:04;17.30;;;14.85;;
10031;SDS011;5056;44.272;19.892;2022-10-17T08:52:37;26.60;;;15.88;;
10031;SDS011;5056;44.272;19.892;2022-10-17T08:55:12;16.73;;;14.20;;
10031;SDS011;5056;44.272;19.892;2022-10-17T08:57:42;15.32;;;13.75;;
10031;SDS011;5056;44.272;19.892;2022-10-17T09:00:13;15.20;;;12.77;;
10031;SDS011;5056;44.272;19.892;2022-10-17T09:02:48;12.63;;;10.88;;
10031;SDS011;5056;44.272;19.892;2022-10-17T09:05:23;15.15;;;13.63;;
10031;SDS011;5056;44.272;19.892;2022-10-17T09:08:01;21.05;;;18.92;;
10031;SDS011;5056;44.272;19.892;2022-10-17T09:10:40;12.57;;;11.35;;
10031;SDS011;5056;44.272;19.892;2022-10-17T09:13:16;14.65;;;12.43;;
10031;SDS011;5056;44.272;19.892;2022-10-17T09:15:54;17.00;;;13.05;;
10031;SDS011;5056;44.272;19.892;2022-10-17T09:18:38;15.60;;;12.05;;
10031;SDS011;5056;44.272;19.892;2022-10-17T09:23:44;18.70;;;12.93;;
10031;SDS011;5056;44.272;19.892;2022-10-17T09:26:16;13.40;;;12.05;;
10031;SDS011;5056;44.272;19.892;2022-10-17T09:28:44;13.70;;;11.32;;
10031;SDS011;5056;44.272;19.892;2022-10-17T09:34:03;15.93;;;9.95;;
10031;SDS011;5056;44.272;19.892;2022-10-17T09:36:36;11.98;;;9.65;;
10031;SDS011;5056;44.272;19.892;2022-10-17T09:39:09;17.02;;;13.63;;
10031;SDS011;5056;44.272;19.892;2022-10-17T09:41:40;10.85;;;9.73;;
10031;SDS011;5056;44.272;19.892;2022-10-17T09:44:13;12.30;;;10.30;;
10031;SDS011;5056;44.272;19.892;2022-10-17T09:46:42;10.73;;;9.60;;
10031;SDS011;5056;44.272;19.892;2022-10-17T09:49:16;15.30;;;12.25;;
10031;SDS011;5056;44.272;19.892;2022-10-17T09:51:51;21.15;;;15.13;;
10031;SDS011;5056;44.272;19.892;2022-10-17T09:54:19;13.68;;;12.27;;
10031;SDS011;5056;44.272;19.892;2022-10-17T09:57:00;13.90;;;10.23;;
10031;SDS011;5056;44.272;19.892;2022-10-17T09:59:44;10.48;;;9.38;;
10031;SDS011;5056;44.272;19.892;2022-10-17T10:02:17;15.95;;;10.27;;
10031;SDS011;5056;44.272;19.892;2022-10-17T10:04:53;11.93;;;10.80;;
10031;SDS011;5056;44.272;19.892;2022-10-17T10:07:27;11.80;;;10.68;;
10031;SDS011;5056;44.272;19.892;2022-10-17T10:09:54;13.73;;;12.20;;
10031;SDS011;5056;44.272;19.892;2022-10-17T10:12:26;13.90;;;11.48;;
10031;SDS011;5056;44.272;19.892;2022-10-17T10:14:55;15.90;;;10.98;;
10031;SDS011;5056;44.272;19.892;2022-10-17T10:17:25;10.95;;;9.90;;
10031;SDS011;5056;44.272;19.892;2022-10-17T10:19:55;12.48;;;11.02;;
10031;SDS011;5056;44.272;19.892;2022-10-17T10:22:21;10.90;;;9.32;;
10031;SDS011;5056;44.272;19.892;2022-10-17T10:25:05;13.20;;;11.90;;
10031;SDS011;5056;44.272;19.892;2022-10-17T10:27:35;13.25;;;10.23;;
10031;SDS011;5056;44.272;19.892;2022-10-17T10:30:05;9.15;;;8.02;;
10031;SDS011;5056;44.272;19.892;2022-10-17T10:32:44;9.30;;;8.38;;
10031;SDS011;5056;44.272;19.892;2022-10-17T10:35:18;9.95;;;8.98;;
10031;SDS011;5056;44.272;19.892;2022-10-17T10:37:47;12.05;;;8.27;;
10031;SDS011;5056;44.272;19.892;2022-10-17T10:40:19;11.13;;;8.23;;
10031;SDS011;5056;44.272;19.892;2022-10-17T10:42:48;8.55;;;7.75;;
10031;SDS011;5056;44.272;19.892;2022-10-17T10:45:16;14.00;;;10.93;;
10031;SDS011;5056;44.272;19.892;2022-10-17T10:47:49;9.98;;;9.07;;
10031;SDS011;5056;44.272;19.892;2022-10-17T10:50:21;11.40;;;10.40;;
10031;SDS011;5056;44.272;19.892;2022-10-17T10:52:53;10.32;;;8.50;;
10031;SDS011;5056;44.272;19.892;2022-10-17T10:55:28;8.68;;;7.78;;
10031;SDS011;5056;44.272;19.892;2022-10-17T10:58:02;10.77;;;9.65;;
10031;SDS011;5056;44.272;19.892;2022-10-17T11:00:32;29.15;;;24.77;;
10031;SDS011;5056;44.272;19.892;2022-10-17T11:03:03;10.13;;;9.05;;
10031;SDS011;5056;44.272;19.892;2022-10-17T11:05:39;10.80;;;9.77;;
10031;SDS011;5056;44.272;19.892;2022-10-17T11:08:11;9.15;;;8.25;;
10031;SDS011;5056;44.272;19.892;2022-10-17T11:10:48;10.90;;;9.80;;
10031;SDS011;5056;44.272;19.892;2022-10-17T11:13:26;7.55;;;6.85;;
10031;SDS011;5056;44.272;19.892;2022-10-17T11:15:58;6.60;;;6.00;;
10031;SDS011;5056;44.272;19.892;2022-10-17T11:18:29;6.82;;;6.20;;
10031;SDS011;5056;44.272;19.892;2022-10-17T11:21:03;7.43;;;6.63;;
10031;SDS011;5056;44.272;19.892;2022-10-17T11:23:33;7.05;;;6.20;;
10031;SDS011;5056;44.272;19.892;2022-10-17T11:26:04;6.47;;;5.97;;
10031;SDS011;5056;44.272;19.892;2022-10-17T11:31:27;9.13;;;8.00;;
10031;SDS011;5056;44.272;19.892;2022-10-17T11:33:57;7.22;;;5.70;;
10031;SDS011;5056;44.272;19.892;2022-10-17T11:36:28;7.63;;;6.70;;
10031;SDS011;5056;44.272;19.892;2022-10-17T11:38:57;7.80;;;5.90;;
10031;SDS011;5056;44.272;19.892;2022-10-17T11:41:28;6.38;;;5.80;;
10031;SDS011;5056;44.272;19.892;2022-10-17T11:47:04;8.50;;;7.60;;
10031;SDS011;5056;44.272;19.892;2022-10-17T11:49:38;14.90;;;13.27;;
10031;SDS011;5056;44.272;19.892;2022-10-17T11:52:09;16.33;;;14.38;;
10031;SDS011;5056;44.272;19.892;2022-10-17T11:54:47;7.18;;;5.72;;
10031;SDS011;5056;44.272;19.892;2022-10-17T11:57:23;9.73;;;8.77;;
10031;SDS011;5056;44.272;19.892;2022-10-17T12:00:02;8.73;;;7.82;;
10031;SDS011;5056;44.272;19.892;2022-10-17T12:02:55;7.20;;;6.55;;
10031;SDS011;5056;44.272;19.892;2022-10-17T12:05:30;8.35;;;5.50;;
10031;SDS011;5056;44.272;19.892;2022-10-17T12:08:08;10.40;;;8.80;;
10031;SDS011;5056;44.272;19.892;2022-10-17T12:10:43;9.95;;;6.68;;
10031;SDS011;5056;44.272;19.892;2022-10-17T12:19:22;33.65;;;29.75;;
10031;SDS011;5056;44.272;19.892;2022-10-17T12:22:18;18.85;;;16.23;;
10031;SDS011;5056;44.272;19.892;2022-10-17T12:27:42;9.82;;;7.38;;
10031;SDS011;5056;44.272;19.892;2022-10-17T12:30:18;11.57;;;9.23;;
10031;SDS011;5056;44.272;19.892;2022-10-17T12:33:00;7.60;;;6.90;;
10031;SDS011;5056;44.272;19.892;2022-10-17T12:35:32;17.30;;;13.23;;
10031;SDS011;5056;44.272;19.892;2022-10-17T12:38:13;6.82;;;6.13;;
10031;SDS011;5056;44.272;19.892;2022-10-17T12:40:59;8.70;;;7.90;;
10031;SDS011;5056;44.272;19.892;2022-10-17T12:43:43;28.50;;;21.15;;
10031;SDS011;5056;44.272;19.892;2022-10-17T12:55:24;7.88;;;7.07;;
10031;SDS011;5056;44.272;19.892;2022-10-17T12:58:00;6.30;;;5.70;;
10031;SDS011;5056;44.272;19.892;2022-10-17T13:00:31;6.50;;;5.60;;
10031;SDS011;5056;44.272;19.892;2022-10-17T13:03:02;13.60;;;12.02;;
10031;SDS011;5056;44.272;19.892;2022-10-17T13:05:34;7.22;;;6.63;;
10031;SDS011;5056;44.272;19.892;2022-10-17T13:08:06;5.72;;;5.22;;
10031;SDS011;5056;44.272;19.892;2022-10-17T13:10:34;8.15;;;7.35;;
10031;SDS011;5056;44.272;19.892;2022-10-17T13:13:05;23.33;;;18.70;;
10031;SDS011;5056;44.272;19.892;2022-10-17T13:15:34;7.22;;;5.88;;
10031;SDS011;5056;44.272;19.892;2022-10-17T13:18:12;11.65;;;10.02;;
10031;SDS011;5056;44.272;19.892;2022-10-17T13:20:52;17.13;;;12.65;;
10031;SDS011;5056;44.272;19.892;2022-10-17T13:23:27;11.40;;;7.35;;
10031;SDS011;5056;44.272;19.892;2022-10-17T13:26:06;7.43;;;6.53;;
10031;SDS011;5056;44.272;19.892;2022-10-17T13:28:38;12.07;;;7.30;;
10031;SDS011;5056;44.272;19.892;2022-10-17T13:31:05;5.97;;;5.38;;
10031;SDS011;5056;44.272;19.892;2022-10-17T13:33:47;14.10;;;10.65;;
10031;SDS011;5056;44.272;19.892;2022-10-17T13:36:15;18.85;;;14.38;;
10031;SDS011;5056;44.272;19.892;2022-10-17T13:38:46;10.45;;;8.00;;
10031;SDS011;5056;44.272;19.892;2022-10-17T13:41:14;13.07;;;11.73;;
10031;SDS011;5056;44.272;19.892;2022-10-17T13:43:45;13.57;;;11.48;;
10031;SDS011;5056;44.272;19.892;2022-10-17T13:46:15;9.23;;;6.82;;
10031;SDS011;5056;44.272;19.892;2022-10-17T13:48:53;5.90;;;5.40;;
10031;SDS011;5056;44.272;19.892;2022-10-17T13:51:20;8.20;;;7.43;;
10031;SDS011;5056;44.272;19.892;2022-10-17T13:53:49;6.75;;;6.15;;
10031;SDS011;5056;44.272;19.892;2022-10-17T13:56:18;7.05;;;6.13;;
10031;SDS011;5056;44.272;19.892;2022-10-17T13:58:48;6.78;;;6.07;;
10031;SDS011;5056;44.272;19.892;2022-10-17T14:01:16;6.15;;;5.55;;
10031;SDS011;5056;44.272;19.892;2022-10-17T14:03:44;7.10;;;5.65;;
10031;SDS011;5056;44.272;19.892;2022-10-17T14:06:13;10.48;;;9.07;;
10031;SDS011;5056;44.272;19.892;2022-10-17T14:11:35;19.58;;;15.82;;
10031;SDS011;5056;44.272;19.892;2022-10-17T14:14:15;6.53;;;5.95;;
10031;SDS011;5056;44.272;19.892;2022-10-17T14:16:44;8.00;;;7.03;;
10031;SDS011;5056;44.272;19.892;2022-10-17T14:19:15;7.18;;;5.82;;
10031;SDS011;5056;44.272;19.892;2022-10-17T14:21:47;7.65;;;6.88;;
10031;SDS011;5056;44.272;19.892;2022-10-17T14:24:24;8.20;;;5.93;;
10031;SDS011;5056;44.272;19.892;2022-10-17T14:26:53;6.55;;;5.93;;
10031;SDS011;5056;44.272;19.892;2022-10-17T14:29:23;8.30;;;7.50;;
10031;SDS011;5056;44.272;19.892;2022-10-17T14:32:01;6.40;;;4.75;;
10031;SDS011;5056;44.272;19.892;2022-10-17T14:34:33;7.90;;;6.78;;
10031;SDS011;5056;44.272;19.892;2022-10-17T14:37:06;6.45;;;5.72;;
10031;SDS011;5056;44.272;19.892;2022-10-17T14:39:37;8.10;;;6.57;;
10031;SDS011;5056;44.272;19.892;2022-10-17T14:42:04;7.93;;;6.90;;
10031;SDS011;5056;44.272;19.892;2022-10-17T14:44:32;9.57;;;7.25;;
10031;SDS011;5056;44.272;19.892;2022-10-17T14:47:03;9.48;;;8.05;;
10031;SDS011;5056;44.272;19.892;2022-10-17T14:49:35;12.57;;;11.13;;
10031;SDS011;5056;44.272;19.892;2022-10-17T14:54:56;7.70;;;6.90;;
10031;SDS011;5056;44.272;19.892;2022-10-17T14:57:26;6.00;;;5.50;;
10031;SDS011;5056;44.272;19.892;2022-10-17T14:59:59;7.18;;;6.47;;
10031;SDS011;5056;44.272;19.892;2022-10-17T15:02:28;10.90;;;7.32;;
10031;SDS011;5056;44.272;19.892;2022-10-17T15:04:59;5.68;;;5.18;;
10031;SDS011;5056;44.272;19.892;2022-10-17T15:07:26;4.80;;;4.22;;
10031;SDS011;5056;44.272;19.892;2022-10-17T15:09:57;5.82;;;4.90;;
10031;SDS011;5056;44.272;19.892;2022-10-17T15:12:27;8.23;;;6.70;;
10031;SDS011;5056;44.272;19.892;2022-10-17T15:14:57;12.05;;;10.85;;
10031;SDS011;5056;44.272;19.892;2022-10-17T15:17:27;12.80;;;11.50;;
10031;SDS011;5056;44.272;19.892;2022-10-17T15:19:56;22.80;;;20.77;;
10031;SDS011;5056;44.272;19.892;2022-10-17T15:22:31;18.83;;;17.23;;
10031;SDS011;5056;44.272;19.892;2022-10-17T15:25:02;10.82;;;9.82;;
10031;SDS011;5056;44.272;19.892;2022-10-17T15:27:30;11.50;;;10.38;;
10031;SDS011;5056;44.272;19.892;2022-10-17T15:29:57;8.52;;;7.63;;
10031;SDS011;5056;44.272;19.892;2022-10-17T15:32:24;8.10;;;5.75;;
10031;SDS011;5056;44.272;19.892;2022-10-17T15:34:51;8.70;;;7.82;;
10031;SDS011;5056;44.272;19.892;2022-10-17T15:37:19;8.35;;;7.40;;
10031;SDS011;5056;44.272;19.892;2022-10-17T15:39:48;7.07;;;6.47;;
10031;SDS011;5056;44.272;19.892;2022-10-17T15:42:20;6.90;;;6.22;;
10031;SDS011;5056;44.272;19.892;2022-10-17T15:44:47;7.82;;;6.85;;
10031;SDS011;5056;44.272;19.892;2022-10-17T15:47:18;7.18;;;6.47;;
10031;SDS011;5056;44.272;19.892;2022-10-17T15:49:48;8.52;;;7.28;;
10031;SDS011;5056;44.272;19.892;2022-10-17T15:52:15;8.68;;;7.15;;